Terminal Aerodrome Forecast
Issued by NWS Sterling, VA

Current Version | Previous Version | Graphics & Text | Print | Product List | Glossary Off
Versions: 1 2 3 4 5 6 7 8 9 10 11 12 13

123
FTUS41 KLWX 272333
TAFMRB
TAF
KMRB 272333Z 2800/2824 VRB04KT P6SM VCTS BKN050CB
      TEMPO 2800/2801 5SM -TSRA BR BKN040CB
     FM280200 VRB04KT P6SM BKN050
     FM281200 VRB03KT 5SM -SHRA OVC050
     FM281600 VRB03KT P6SM -SHRA OVC025
     FM281800 08004KT 3SM SHRA OVC025
     FM282100 VRB04KT 2SM SHRA OVC020=

USA.gov is the U.S. government's official web portal to all federal, state and local government web resources and services.